sensor_id;sensor_type;location;lat;lon;timestamp;temperature;humidity
18894;DHT22;9579;49.488;8.226;2022-12-29T00:00:55;13.10;99.90
18894;DHT22;9579;49.488;8.226;2022-12-29T00:03:45;13.10;99.90
18894;DHT22;9579;49.488;8.226;2022-12-29T00:06:32;13.10;99.90
18894;DHT22;9579;49.488;8.226;2022-12-29T00:09:20;13.10;99.90
18894;DHT22;9579;49.488;8.226;2022-12-29T00:12:07;13.20;99.90
18894;DHT22;9579;49.488;8.226;2022-12-29T00:14:55;13.20;99.90
18894;DHT22;9579;49.488;8.226;2022-12-29T00:18:00;13.20;99.90
18894;DHT22;9579;49.488;8.226;2022-12-29T00:20:47;13.10;99.90
18894;DHT22;9579;49.488;8.226;2022-12-29T00:23:51;13.20;99.90
18894;DHT22;9579;49.488;8.226;2022-12-29T00:27:09;13.20;99.90
18894;DHT22;9579;49.488;8.226;2022-12-29T00:30:16;13.20;99.90
18894;DHT22;9579;49.488;8.226;2022-12-29T00:33:22;13.20;99.90
18894;DHT22;9579;49.488;8.226;2022-12-29T00:36:33;13.30;99.90
18894;DHT22;9579;49.488;8.226;2022-12-29T00:39:21;13.20;99.90
18894;DHT22;9579;49.488;8.226;2022-12-29T00:42:27;13.20;99.90
18894;DHT22;9579;49.488;8.226;2022-12-29T00:45:39;13.20;99.90
18894;DHT22;9579;49.488;8.226;2022-12-29T00:48:27;13.20;99.90
18894;DHT22;9579;49.488;8.226;2022-12-29T00:51:31;13.20;99.90
18894;DHT22;9579;49.488;8.226;2022-12-29T00:54:18;13.30;99.90
18894;DHT22;9579;49.488;8.226;2022-12-29T00:57:07;13.20;99.90
18894;DHT22;9579;49.488;8.226;2022-12-29T00:59:57;13.20;99.90
18894;DHT22;9579;49.488;8.226;2022-12-29T01:02:44;13.20;99.90
18894;DHT22;9579;49.488;8.226;2022-12-29T01:05:31;13.30;99.90
18894;DHT22;9579;49.488;8.226;2022-12-29T01:08:18;13.20;99.90
18894;DHT22;9579;49.488;8.226;2022-12-29T01:11:06;13.20;99.90
18894;DHT22;9579;49.488;8.226;2022-12-29T01:13:53;13.10;99.90
18894;DHT22;9579;49.488;8.226;2022-12-29T01:16:41;13.20;99.90
18894;DHT22;9579;49.488;8.226;2022-12-29T01:19:28;13.20;99.90
18894;DHT22;9579;49.488;8.226;2022-12-29T01:22:15;13.20;99.90
18894;DHT22;9579;49.488;8.226;2022-12-29T01:25:03;13.20;99.90
18894;DHT22;9579;49.488;8.226;2022-12-29T01:27:50;13.20;99.90
18894;DHT22;9579;49.488;8.226;2022-12-29T01:30:37;13.20;99.90
18894;DHT22;9579;49.488;8.226;2022-12-29T01:33:25;13.20;99.90
18894;DHT22;9579;49.488;8.226;2022-12-29T01:36:14;13.20;99.90
18894;DHT22;9579;49.488;8.226;2022-12-29T01:39:02;13.30;99.90
18894;DHT22;9579;49.488;8.226;2022-12-29T01:41:49;13.30;99.90
18894;DHT22;9579;49.488;8.226;2022-12-29T01:44:50;13.30;99.90
18894;DHT22;9579;49.488;8.226;2022-12-29T01:47:40;13.30;99.90
18894;DHT22;9579;49.488;8.226;2022-12-29T01:50:32;13.30;99.90
18894;DHT22;9579;49.488;8.226;2022-12-29T01:53:24;13.30;99.90
18894;DHT22;9579;49.488;8.226;2022-12-29T01:56:16;13.30;99.90
18894;DHT22;9579;49.488;8.226;2022-12-29T01:59:12;13.30;99.90
18894;DHT22;9579;49.488;8.226;2022-12-29T02:02:01;13.40;99.90
18894;DHT22;9579;49.488;8.226;2022-12-29T02:04:49;13.40;99.90
18894;DHT22;9579;49.488;8.226;2022-12-29T02:07:37;13.30;99.90
18894;DHT22;9579;49.488;8.226;2022-12-29T02:10:27;13.40;99.90
18894;DHT22;9579;49.488;8.226;2022-12-29T02:13:15;13.50;99.90
18894;DHT22;9579;49.488;8.226;2022-12-29T02:16:14;13.50;99.90
18894;DHT22;9579;49.488;8.226;2022-12-29T02:22:35;13.60;99.90
18894;DHT22;9579;49.488;8.226;2022-12-29T02:25:46;13.50;99.90
18894;DHT22;9579;49.488;8.226;2022-12-29T02:29:06;13.40;99.90
18894;DHT22;9579;49.488;8.226;2022-12-29T02:32:01;13.40;99.90
18894;DHT22;9579;49.488;8.226;2022-12-29T02:34:55;13.50;99.90
18894;DHT22;9579;49.488;8.226;2022-12-29T02:37:53;13.40;99.90
18894;DHT22;9579;49.488;8.226;2022-12-29T02:40:47;13.50;99.90
18894;DHT22;9579;49.488;8.226;2022-12-29T02:43:42;13.50;99.90
18894;DHT22;9579;49.488;8.226;2022-12-29T02:46:36;13.60;99.90
18894;DHT22;9579;49.488;8.226;2022-12-29T02:49:27;13.50;99.90
18894;DHT22;9579;49.488;8.226;2022-12-29T02:52:20;13.50;99.90
18894;DHT22;9579;49.488;8.226;2022-12-29T02:55:11;13.50;99.90
18894;DHT22;9579;49.488;8.226;2022-12-29T02:58:16;13.60;99.90
18894;DHT22;9579;49.488;8.226;2022-12-29T03:01:16;13.50;99.90
18894;DHT22;9579;49.488;8.226;2022-12-29T03:04:19;13.40;99.90
18894;DHT22;9579;49.488;8.226;2022-12-29T03:07:16;13.40;99.90
18894;DHT22;9579;49.488;8.226;2022-12-29T03:10:14;13.50;99.90
18894;DHT22;9579;49.488;8.226;2022-12-29T03:13:07;13.60;99.90
18894;DHT22;9579;49.488;8.226;2022-12-29T03:16:21;13.70;99.90
18894;DHT22;9579;49.488;8.226;2022-12-29T03:19:15;13.60;99.90
18894;DHT22;9579;49.488;8.226;2022-12-29T03:22:07;13.60;99.90
18894;DHT22;9579;49.488;8.226;2022-12-29T03:25:15;13.60;99.90
18894;DHT22;9579;49.488;8.226;2022-12-29T03:28:07;13.60;99.90
18894;DHT22;9579;49.488;8.226;2022-12-29T03:30:57;13.60;99.90
18894;DHT22;9579;49.488;8.226;2022-12-29T03:33:46;13.60;99.90
18894;DHT22;9579;49.488;8.226;2022-12-29T03:36:38;13.60;99.90
18894;DHT22;9579;49.488;8.226;2022-12-29T03:39:27;13.70;99.90
18894;DHT22;9579;49.488;8.226;2022-12-29T03:42:24;13.70;99.90
18894;DHT22;9579;49.488;8.226;2022-12-29T03:45:13;13.60;99.90
18894;DHT22;9579;49.488;8.226;2022-12-29T03:48:00;13.60;99.90
18894;DHT22;9579;49.488;8.226;2022-12-29T03:50:47;13.60;99.90
18894;DHT22;9579;49.488;8.226;2022-12-29T03:53:34;13.60;99.90
18894;DHT22;9579;49.488;8.226;2022-12-29T03:56:21;13.60;99.90
18894;DHT22;9579;49.488;8.226;2022-12-29T03:59:09;13.60;99.90
18894;DHT22;9579;49.488;8.226;2022-12-29T04:01:56;13.60;99.90
18894;DHT22;9579;49.488;8.226;2022-12-29T04:04:43;13.50;99.90
18894;DHT22;9579;49.488;8.226;2022-12-29T04:07:30;13.50;99.90
18894;DHT22;9579;49.488;8.226;2022-12-29T04:10:17;13.60;99.90
18894;DHT22;9579;49.488;8.226;2022-12-29T04:13:04;13.60;99.90
18894;DHT22;9579;49.488;8.226;2022-12-29T04:15:53;13.70;99.90
18894;DHT22;9579;49.488;8.226;2022-12-29T04:18:40;13.70;99.90
18894;DHT22;9579;49.488;8.226;2022-12-29T04:21:27;13.70;99.90
18894;DHT22;9579;49.488;8.226;2022-12-29T04:24:14;13.60;99.90
18894;DHT22;9579;49.488;8.226;2022-12-29T04:27:01;13.60;99.90
18894;DHT22;9579;49.488;8.226;2022-12-29T04:29:48;13.60;99.90
18894;DHT22;9579;49.488;8.226;2022-12-29T04:32:36;13.60;99.90
18894;DHT22;9579;49.488;8.226;2022-12-29T04:35:23;13.50;99.90
18894;DHT22;9579;49.488;8.226;2022-12-29T04:38:11;13.60;99.90
18894;DHT22;9579;49.488;8.226;2022-12-29T04:40:59;13.60;99.90
18894;DHT22;9579;49.488;8.226;2022-12-29T04:43:46;13.60;99.90
18894;DHT22;9579;49.488;8.226;2022-12-29T04:46:33;13.60;99.90
18894;DHT22;9579;49.488;8.226;2022-12-29T04:49:22;13.60;99.90
18894;DHT22;9579;49.488;8.226;2022-12-29T04:52:08;13.60;99.90
18894;DHT22;9579;49.488;8.226;2022-12-29T04:54:56;13.60;99.90
18894;DHT22;9579;49.488;8.226;2022-12-29T04:57:43;13.70;99.90
18894;DHT22;9579;49.488;8.226;2022-12-29T05:00:30;13.70;99.90
18894;DHT22;9579;49.488;8.226;2022-12-29T05:03:17;13.70;99.90
18894;DHT22;9579;49.488;8.226;2022-12-29T05:06:06;13.60;99.90
18894;DHT22;9579;49.488;8.226;2022-12-29T05:08:53;13.60;99.90
18894;DHT22;9579;49.488;8.226;2022-12-29T05:11:40;13.60;99.90
18894;DHT22;9579;49.488;8.226;2022-12-29T05:14:27;13.70;99.90
18894;DHT22;9579;49.488;8.226;2022-12-29T05:17:14;13.70;99.90
18894;DHT22;9579;49.488;8.226;2022-12-29T05:20:01;13.80;99.90
18894;DHT22;9579;49.488;8.226;2022-12-29T05:22:50;13.80;99.90
18894;DHT22;9579;49.488;8.226;2022-12-29T05:25:37;13.80;99.90
18894;DHT22;9579;49.488;8.226;2022-12-29T05:28:24;13.90;99.90
18894;DHT22;9579;49.488;8.226;2022-12-29T05:31:11;13.90;99.90
18894;DHT22;9579;49.488;8.226;2022-12-29T05:33:58;13.90;99.90
18894;DHT22;9579;49.488;8.226;2022-12-29T05:36:45;13.90;99.90
18894;DHT22;9579;49.488;8.226;2022-12-29T05:39:33;13.90;99.90
18894;DHT22;9579;49.488;8.226;2022-12-29T05:42:20;13.90;99.90
18894;DHT22;9579;49.488;8.226;2022-12-29T05:45:08;14.00;99.90
18894;DHT22;9579;49.488;8.226;2022-12-29T05:47:55;13.90;99.90
18894;DHT22;9579;49.488;8.226;2022-12-29T05:50:42;14.00;99.90
18894;DHT22;9579;49.488;8.226;2022-12-29T06:43:12;13.80;99.90
18894;DHT22;9579;49.488;8.226;2022-12-29T06:49:28;14.20;99.90
18894;DHT22;9579;49.488;8.226;2022-12-29T06:58:40;14.30;99.90
18894;DHT22;9579;49.488;8.226;2022-12-29T07:05:18;14.30;99.90
18894;DHT22;9579;49.488;8.226;2022-12-29T07:08:05;14.40;99.90
18894;DHT22;9579;49.488;8.226;2022-12-29T07:10:52;14.50;99.90
18894;DHT22;9579;49.488;8.226;2022-12-29T07:13:40;15.00;99.90
18894;DHT22;9579;49.488;8.226;2022-12-29T07:16:32;14.60;99.90
18894;DHT22;9579;49.488;8.226;2022-12-29T07:28:13;14.70;99.90
18894;DHT22;9579;49.488;8.226;2022-12-29T07:31:02;15.40;99.90
18894;DHT22;9579;49.488;8.226;2022-12-29T07:37:32;14.60;99.90
18894;DHT22;9579;49.488;8.226;2022-12-29T08:44:04;14.90;99.90
18894;DHT22;9579;49.488;8.226;2022-12-29T08:46:51;14.90;99.90
18894;DHT22;9579;49.488;8.226;2022-12-29T08:49:38;14.70;99.90
18894;DHT22;9579;49.488;8.226;2022-12-29T09:30:56;14.70;99.90
18894;DHT22;9579;49.488;8.226;2022-12-29T09:33:59;14.90;99.90
18894;DHT22;9579;49.488;8.226;2022-12-29T09:36:46;14.60;99.90
18894;DHT22;9579;49.488;8.226;2022-12-29T09:56:35;14.60;99.90
18894;DHT22;9579;49.488;8.226;2022-12-29T09:59:41;14.80;99.90
18894;DHT22;9579;49.488;8.226;2022-12-29T10:02:39;15.00;99.90
18894;DHT22;9579;49.488;8.226;2022-12-29T10:05:35;15.60;99.90
18894;DHT22;9579;49.488;8.226;2022-12-29T10:12:25;14.50;99.90
18894;DHT22;9579;49.488;8.226;2022-12-29T10:22:53;15.10;99.90
18894;DHT22;9579;49.488;8.226;2022-12-29T10:29:29;15.10;99.90
18894;DHT22;9579;49.488;8.226;2022-12-29T10:32:27;15.10;99.90
18894;DHT22;9579;49.488;8.226;2022-12-29T10:35:19;15.60;99.90
18894;DHT22;9579;49.488;8.226;2022-12-29T10:38:15;15.30;99.90
18894;DHT22;9579;49.488;8.226;2022-12-29T10:41:11;15.50;99.90
18894;DHT22;9579;49.488;8.226;2022-12-29T10:44:01;16.30;99.90
18894;DHT22;9579;49.488;8.226;2022-12-29T10:46:55;16.50;99.90
18894;DHT22;9579;49.488;8.226;2022-12-29T10:49:46;15.90;99.90
18894;DHT22;9579;49.488;8.226;2022-12-29T10:52:40;15.30;99.90
18894;DHT22;9579;49.488;8.226;2022-12-29T10:55:42;15.40;99.90
18894;DHT22;9579;49.488;8.226;2022-12-29T10:58:39;15.40;99.90
18894;DHT22;9579;49.488;8.226;2022-12-29T11:01:37;15.40;99.90
18894;DHT22;9579;49.488;8.226;2022-12-29T11:10:21;15.20;99.90
18894;DHT22;9579;49.488;8.226;2022-12-29T11:13:28;15.20;99.90
18894;DHT22;9579;49.488;8.226;2022-12-29T11:37:57;14.40;99.90
18894;DHT22;9579;49.488;8.226;2022-12-29T11:40:45;14.30;99.90
18894;DHT22;9579;49.488;8.226;2022-12-29T11:43:36;15.30;99.90
18894;DHT22;9579;49.488;8.226;2022-12-29T11:46:38;14.40;99.90
18894;DHT22;9579;49.488;8.226;2022-12-29T11:49:26;14.50;99.90
18894;DHT22;9579;49.488;8.226;2022-12-29T11:52:13;14.70;99.90
18894;DHT22;9579;49.488;8.226;2022-12-29T11:55:03;14.80;99.90
18894;DHT22;9579;49.488;8.226;2022-12-29T11:57:54;14.80;99.90
18894;DHT22;9579;49.488;8.226;2022-12-29T12:00:43;15.00;99.90
18894;DHT22;9579;49.488;8.226;2022-12-29T12:03:36;16.60;99.90
18894;DHT22;9579;49.488;8.226;2022-12-29T12:06:26;15.00;99.90
18894;DHT22;9579;49.488;8.226;2022-12-29T12:09:18;15.70;99.90
18894;DHT22;9579;49.488;8.226;2022-12-29T12:12:20;15.90;99.90
18894;DHT22;9579;49.488;8.226;2022-12-29T12:15:15;16.30;99.90
18894;DHT22;9579;49.488;8.226;2022-12-29T12:18:08;16.20;99.90
18894;DHT22;9579;49.488;8.226;2022-12-29T12:20:58;16.30;99.90
18894;DHT22;9579;49.488;8.226;2022-12-29T12:24:15;16.30;99.90
18894;DHT22;9579;49.488;8.226;2022-12-29T12:27:13;16.20;99.90
18894;DHT22;9579;49.488;8.226;2022-12-29T12:30:04;16.50;99.90
18894;DHT22;9579;49.488;8.226;2022-12-29T12:32:58;15.90;99.90
18894;DHT22;9579;49.488;8.226;2022-12-29T12:36:04;15.90;99.90
18894;DHT22;9579;49.488;8.226;2022-12-29T12:39:00;15.90;99.90
18894;DHT22;9579;49.488;8.226;2022-12-29T12:41:55;16.20;99.90
18894;DHT22;9579;49.488;8.226;2022-12-29T12:44:51;15.50;99.90
18894;DHT22;9579;49.488;8.226;2022-12-29T12:47:51;15.90;99.90
18894;DHT22;9579;49.488;8.226;2022-12-29T12:50:48;15.90;99.90
18894;DHT22;9579;49.488;8.226;2022-12-29T12:53:53;15.80;99.90
18894;DHT22;9579;49.488;8.226;2022-12-29T12:56:59;15.90;99.90
18894;DHT22;9579;49.488;8.226;2022-12-29T12:59:56;16.00;99.90
18894;DHT22;9579;49.488;8.226;2022-12-29T13:02:54;15.50;99.90
18894;DHT22;9579;49.488;8.226;2022-12-29T13:05:55;15.50;99.90
18894;DHT22;9579;49.488;8.226;2022-12-29T13:09:09;15.80;99.90
18894;DHT22;9579;49.488;8.226;2022-12-29T13:12:13;15.40;99.90
18894;DHT22;9579;49.488;8.226;2022-12-29T13:15:14;15.30;99.90
18894;DHT22;9579;49.488;8.226;2022-12-29T13:18:10;15.70;99.90
18894;DHT22;9579;49.488;8.226;2022-12-29T13:21:04;15.00;99.90
18894;DHT22;9579;49.488;8.226;2022-12-29T13:23:59;14.90;99.90
18894;DHT22;9579;49.488;8.226;2022-12-29T13:26:52;15.00;99.90
18894;DHT22;9579;49.488;8.226;2022-12-29T13:29:46;14.80;99.90
18894;DHT22;9579;49.488;8.226;2022-12-29T13:32:48;14.60;99.90
18894;DHT22;9579;49.488;8.226;2022-12-29T13:49:39;14.10;99.90
18894;DHT22;9579;49.488;8.226;2022-12-29T13:52:34;14.60;99.90
18894;DHT22;9579;49.488;8.226;2022-12-29T13:55:27;14.10;99.90
18894;DHT22;9579;49.488;8.226;2022-12-29T14:04:11;14.00;99.90
18894;DHT22;9579;49.488;8.226;2022-12-29T14:07:03;14.00;99.90
18894;DHT22;9579;49.488;8.226;2022-12-29T14:09:52;14.50;99.90
18894;DHT22;9579;49.488;8.226;2022-12-29T14:15:23;13.90;99.90
18894;DHT22;9579;49.488;8.226;2022-12-29T15:04:32;13.30;99.90
18894;DHT22;9579;49.488;8.226;2022-12-29T15:07:22;14.20;99.90
18894;DHT22;9579;49.488;8.226;2022-12-29T15:10:14;14.10;99.90
